Darstellungsparameter: Aktuell verwendete Einstellungen:
Skalierung der Graphiken ... ?
xyx+y,   Skalierungsfaktor:      Skalierung: Modus: x, Faktor: 1
Darstellungszeitraum ... ?
Vom - - bis: - -   Zeitraum: 09.03.2018 - 09.03.2018
Min/Max/Avg-Anzeige ... ?
Zeige MMA aktuell
Zeige MMA Monat
Zeige MMA alles
Zeige --A aktuell
Zeige --A Monat
Zeige --A alles
Keine MMA-Anzeige
MMA:
Keine MMA-Graphiken
MMA-Basis: 09.03.2018 - 09.03.2018
Quicknavigation für Darstellung... ?
Tage:      1T, 2T, 3T, 5T -1T -2T -3T -5T +1T +2T +3T +5T
Wochen: 1W, 2W, 3W -1W -2W -3W +1W +2W +3W
Monate: 1M, 3M, 6M -1M -3M -6M +1M +3M +6M
Jahre:    1J, 3J, 5J, 10J -1J -3J -5J -10J +1J +3J +5J +10J
Nutze für die Darstellung ... ?
Originaldaten oder Mittelwerte auf ...
Stundenbasis Tagesbasis Wochenbasis
Monatsbasis Jahresbasis      Datenbasis: Original-Daten
Darstellen als:
Statistik (Auto) Statistik J:M      Darstellung:
Zur Graphik,    zurück zur Übersicht aller Sensoren.
 
Tabellarische Datenbersicht: ?
 
Sensor: Nr:Datum:Temp:Feuchte:Taupunkt:
Aussen-T/F 1 09-03-2018 00:00:00 3.4 C 93 % 2.38 C
2 09-03-2018 00:05:00 3.4 C 92 % 2.23 C
3 09-03-2018 00:10:00 3.4 C 92 % 2.23 C
4 09-03-2018 00:15:00 3.5 C 93 % 2.48 C
5 09-03-2018 00:20:00 3.6 C 92 % 2.42 C
6 09-03-2018 00:25:00 3.6 C 92 % 2.42 C
7 09-03-2018 00:30:00 3.6 C 92 % 2.42 C
8 09-03-2018 00:35:00 3.6 C 92 % 2.42 C
9 09-03-2018 00:40:00 3.6 C 92 % 2.42 C
10 09-03-2018 00:45:00 3.6 C 92 % 2.42 C
11 09-03-2018 00:50:00 3.6 C 92 % 2.42 C
12 09-03-2018 00:55:00 3.7 C 92 % 2.52 C
13 09-03-2018 01:00:00 3.7 C 92 % 2.52 C
14 09-03-2018 01:05:00 3.6 C 91 % 2.27 C
15 09-03-2018 01:10:00 3.5 C 92 % 2.33 C
16 09-03-2018 01:15:00 3.4 C 92 % 2.23 C
17 09-03-2018 01:20:00 3.3 C 92 % 2.13 C
18 09-03-2018 01:25:00 3.2 C 92 % 2.03 C
19 09-03-2018 01:30:00 3.1 C 92 % 1.93 C
20 09-03-2018 01:35:00 3.1 C 92 % 1.93 C
21 09-03-2018 01:40:00 3.1 C 92 % 1.93 C
22 09-03-2018 01:45:00 2.9 C 92 % 1.73 C
23 09-03-2018 01:50:00 2.8 C 92 % 1.63 C
24 09-03-2018 01:55:00 2.8 C 92 % 1.63 C
25 09-03-2018 02:00:00 2.7 C 93 % 1.68 C
Sensor: Nr:Datum:Temp:Feuchte:Taupunkt:
Aussen-T/F 26 09-03-2018 02:05:00 2.6 C 93 % 1.59 C
27 09-03-2018 02:10:00 2.6 C 93 % 1.59 C
28 09-03-2018 02:15:00 2.4 C 93 % 1.39 C
29 09-03-2018 02:20:00 2.4 C 93 % 1.39 C
30 09-03-2018 02:25:00 2.3 C 93 % 1.29 C
31 09-03-2018 02:30:00 2.3 C 93 % 1.29 C
32 09-03-2018 02:35:00 2.2 C 93 % 1.19 C
33 09-03-2018 02:40:00 2.2 C 93 % 1.19 C
34 09-03-2018 02:45:00 2.2 C 94 % 1.34 C
35 09-03-2018 02:50:00 2.2 C 94 % 1.34 C
36 09-03-2018 02:55:00 2.2 C 94 % 1.34 C
37 09-03-2018 03:00:00 2.3 C 94 % 1.44 C
38 09-03-2018 03:05:00 2.4 C 94 % 1.54 C
39 09-03-2018 03:10:00 2.4 C 94 % 1.54 C
40 09-03-2018 03:15:00 2.4 C 94 % 1.54 C
41 09-03-2018 03:20:00 2.5 C 94 % 1.63 C
42 09-03-2018 03:25:00 2.4 C 94 % 1.54 C
43 09-03-2018 03:30:00 2.5 C 94 % 1.63 C
44 09-03-2018 03:35:00 2.6 C 95 % 1.88 C
45 09-03-2018 03:40:00 2.7 C 95 % 1.98 C
46 09-03-2018 03:45:00 2.8 C 95 % 2.08 C
47 09-03-2018 03:50:00 2.8 C 94 % 1.93 C
48 09-03-2018 03:55:00 2.7 C 94 % 1.83 C
49 09-03-2018 04:00:00 2.8 C 94 % 1.93 C
50 09-03-2018 04:05:00 2.8 C 94 % 1.93 C
Sensor: Nr:Datum:Temp:Feuchte:Taupunkt:
Aussen-T/F 51 09-03-2018 04:10:00 2.7 C 94 % 1.83 C
52 09-03-2018 04:15:00 2.7 C 94 % 1.83 C
53 09-03-2018 04:20:00 2.6 C 94 % 1.73 C
54 09-03-2018 04:25:00 2.6 C 94 % 1.73 C
55 09-03-2018 04:30:00 2.6 C 94 % 1.73 C
56 09-03-2018 04:35:00 2.6 C 94 % 1.73 C
57 09-03-2018 04:40:00 2.5 C 94 % 1.63 C
58 09-03-2018 04:45:00 2.6 C 95 % 1.88 C
59 09-03-2018 04:50:00 2.6 C 95 % 1.88 C
60 09-03-2018 04:55:00 2.5 C 94 % 1.63 C
61 09-03-2018 05:00:00 2.4 C 94 % 1.54 C
62 09-03-2018 05:05:00 2.3 C 94 % 1.44 C
63 09-03-2018 05:10:00 2.3 C 94 % 1.44 C
64 09-03-2018 05:15:00 2.3 C 95 % 1.58 C
65 09-03-2018 05:20:00 2.3 C 95 % 1.58 C
66 09-03-2018 05:25:00 2.3 C 95 % 1.58 C
67 09-03-2018 05:30:00 2.3 C 95 % 1.58 C
68 09-03-2018 05:35:00 2.4 C 95 % 1.68 C
69 09-03-2018 05:40:00 2.4 C 95 % 1.68 C
70 09-03-2018 05:45:00 2.5 C 95 % 1.78 C
71 09-03-2018 05:50:00 2.6 C 95 % 1.88 C
72 09-03-2018 05:55:00 2.6 C 95 % 1.88 C
73 09-03-2018 06:00:00 2.7 C 95 % 1.98 C
74 09-03-2018 06:05:00 2.7 C 95 % 1.98 C
75 09-03-2018 06:10:00 2.7 C 95 % 1.98 C
Sensor: Nr:Datum:Temp:Feuchte:Taupunkt:
Aussen-T/F 76 09-03-2018 06:15:00 2.8 C 95 % 2.08 C
77 09-03-2018 06:20:00 2.8 C 95 % 2.08 C
78 09-03-2018 06:25:00 2.8 C 95 % 2.08 C
79 09-03-2018 06:30:00 2.8 C 95 % 2.08 C
80 09-03-2018 06:35:00 2.8 C 95 % 2.08 C
81 09-03-2018 06:40:00 2.8 C 95 % 2.08 C
82 09-03-2018 06:45:00 2.8 C 95 % 2.08 C
83 09-03-2018 06:50:00 2.8 C 95 % 2.08 C
84 09-03-2018 06:55:00 2.8 C 95 % 2.08 C
85 09-03-2018 07:00:00 2.9 C 95 % 2.18 C
86 09-03-2018 07:05:00 2.9 C 95 % 2.18 C
87 09-03-2018 07:10:00 2.9 C 95 % 2.18 C
88 09-03-2018 07:15:00 2.9 C 95 % 2.18 C
89 09-03-2018 07:20:00 3 C 95 % 2.28 C
90 09-03-2018 07:25:00 3 C 95 % 2.28 C
91 09-03-2018 07:30:00 3 C 95 % 2.28 C
92 09-03-2018 07:35:00 3.1 C 95 % 2.38 C
93 09-03-2018 07:40:00 3.1 C 96 % 2.53 C
94 09-03-2018 07:45:00 3.1 C 95 % 2.38 C
95 09-03-2018 07:50:00 3.1 C 95 % 2.38 C
96 09-03-2018 07:55:00 3.2 C 95 % 2.48 C
97 09-03-2018 08:00:00 3.2 C 96 % 2.63 C
98 09-03-2018 08:05:00 3.2 C 96 % 2.63 C
99 09-03-2018 08:10:00 3.3 C 96 % 2.72 C
100 09-03-2018 08:15:00 3.3 C 96 % 2.72 C
Sensor: Nr:Datum:Temp:Feuchte:Taupunkt:
Aussen-T/F 101 09-03-2018 08:20:00 3.4 C 96 % 2.82 C
102 09-03-2018 08:25:00 3.5 C 96 % 2.92 C
103 09-03-2018 08:30:00 3.5 C 96 % 2.92 C
104 09-03-2018 08:35:00 3.6 C 96 % 3.02 C
105 09-03-2018 08:40:00 3.7 C 96 % 3.12 C
106 09-03-2018 08:45:00 3.7 C 96 % 3.12 C
107 09-03-2018 08:50:00 3.8 C 96 % 3.22 C
108 09-03-2018 08:55:00 3.8 C 96 % 3.22 C
109 09-03-2018 09:00:00 3.8 C 96 % 3.22 C
110 09-03-2018 09:05:00 3.9 C 96 % 3.32 C
111 09-03-2018 09:10:00 3.9 C 96 % 3.32 C
112 09-03-2018 09:15:00 3.9 C 96 % 3.32 C
113 09-03-2018 09:20:00 3.9 C 96 % 3.32 C
114 09-03-2018 09:25:00 3.9 C 96 % 3.32 C
115 09-03-2018 09:30:00 4 C 96 % 3.42 C
116 09-03-2018 09:35:00 4.1 C 96 % 3.52 C
117 09-03-2018 09:40:00 4.1 C 96 % 3.52 C
118 09-03-2018 09:45:00 4.2 C 96 % 3.62 C
119 09-03-2018 09:50:00 4.2 C 96 % 3.62 C
120 09-03-2018 09:55:00 4.2 C 96 % 3.62 C
121 09-03-2018 10:00:00 4.3 C 96 % 3.72 C
122 09-03-2018 10:05:00 4.3 C 96 % 3.72 C
123 09-03-2018 10:10:00 4.3 C 96 % 3.72 C
124 09-03-2018 10:15:00 4.3 C 96 % 3.72 C
125 09-03-2018 10:20:00 4.4 C 96 % 3.82 C
Sensor: Nr:Datum:Temp:Feuchte:Taupunkt:
Aussen-T/F 126 09-03-2018 10:25:00 4.5 C 96 % 3.92 C
127 09-03-2018 10:30:00 4.6 C 96 % 4.02 C
128 09-03-2018 10:35:00 4.7 C 96 % 4.12 C
129 09-03-2018 10:40:00 4.8 C 96 % 4.22 C
130 09-03-2018 10:45:00 4.8 C 96 % 4.22 C
131 09-03-2018 10:50:00 5 C 96 % 4.42 C
132 09-03-2018 10:55:00 5.1 C 96 % 4.52 C
133 09-03-2018 11:00:00 5.1 C 96 % 4.52 C
134 09-03-2018 11:05:00 5.2 C 96 % 4.62 C
135 09-03-2018 11:10:00 5.3 C 96 % 4.72 C
136 09-03-2018 11:15:00 5.4 C 96 % 4.81 C
137 09-03-2018 11:20:00 5.5 C 95 % 4.76 C
138 09-03-2018 11:25:00 5.6 C 95 % 4.86 C
139 09-03-2018 11:30:00 5.7 C 95 % 4.96 C
140 09-03-2018 11:35:00 5.8 C 95 % 5.06 C
141 09-03-2018 11:40:00 5.9 C 95 % 5.16 C
142 09-03-2018 11:45:00 6.1 C 94 % 5.21 C
143 09-03-2018 11:50:00 6.2 C 94 % 5.31 C
144 09-03-2018 11:55:00 6.3 C 94 % 5.41 C
145 09-03-2018 12:00:00 6.4 C 93 % 5.35 C
146 09-03-2018 12:05:00 6.6 C 93 % 5.55 C
147 09-03-2018 12:10:00 6.7 C 93 % 5.65 C
148 09-03-2018 12:15:00 6.8 C 92 % 5.59 C
149 09-03-2018 12:20:00 6.9 C 92 % 5.69 C
150 09-03-2018 12:25:00 7.1 C 91 % 5.73 C
Sensor: Nr:Datum:Temp:Feuchte:Taupunkt:
Aussen-T/F 151 09-03-2018 12:30:00 7.2 C 91 % 5.83 C
152 09-03-2018 12:35:00 7.4 C 91 % 6.03 C
153 09-03-2018 12:40:00 7.5 C 89 % 5.81 C
154 09-03-2018 12:45:00 7.6 C 89 % 5.91 C
155 09-03-2018 12:50:00 7.7 C 89 % 6 C
156 09-03-2018 12:55:00 7.9 C 89 % 6.2 C
157 09-03-2018 13:00:00 7.9 C 88 % 6.04 C
158 09-03-2018 13:05:00 8 C 89 % 6.3 C
159 09-03-2018 13:10:00 8.1 C 88 % 6.24 C
160 09-03-2018 13:15:00 8.2 C 88 % 6.33 C
161 09-03-2018 13:20:00 8.3 C 87 % 6.27 C
162 09-03-2018 13:25:00 8.3 C 87 % 6.27 C
163 09-03-2018 13:30:00 8.4 C 87 % 6.37 C
164 09-03-2018 13:35:00 8.5 C 87 % 6.46 C
165 09-03-2018 13:40:00 8.6 C 86 % 6.39 C
166 09-03-2018 13:45:00 8.6 C 87 % 6.56 C
167 09-03-2018 13:50:00 8.6 C 86 % 6.39 C
168 09-03-2018 13:55:00 8.5 C 87 % 6.46 C
169 09-03-2018 14:00:00 8.5 C 87 % 6.46 C
170 09-03-2018 14:05:00 8.4 C 88 % 6.53 C
171 09-03-2018 14:10:00 8.5 C 88 % 6.63 C
172 09-03-2018 14:15:00 8.6 C 89 % 6.89 C
173 09-03-2018 14:20:00 8.6 C 90 % 7.06 C
174 09-03-2018 14:25:00 8.7 C 90 % 7.15 C
175 09-03-2018 14:30:00 8.8 C 90 % 7.25 C
Sensor: Nr:Datum:Temp:Feuchte:Taupunkt:
Aussen-T/F 176 09-03-2018 14:35:00 8.8 C 90 % 7.25 C
177 09-03-2018 14:40:00 8.9 C 89 % 7.19 C
178 09-03-2018 14:45:00 8.9 C 88 % 7.02 C
179 09-03-2018 14:50:00 8.9 C 89 % 7.19 C
180 09-03-2018 14:55:00 8.9 C 89 % 7.19 C
181 09-03-2018 15:00:00 8.9 C 90 % 7.35 C
182 09-03-2018 15:05:00 9 C 90 % 7.45 C
183 09-03-2018 15:10:00 9 C 91 % 7.61 C
184 09-03-2018 15:15:00 9.1 C 91 % 7.71 C
185 09-03-2018 15:20:00 9.1 C 91 % 7.71 C
186 09-03-2018 15:25:00 9.2 C 92 % 7.97 C
187 09-03-2018 15:30:00 9.2 C 92 % 7.97 C
188 09-03-2018 15:35:00 9.3 C 92 % 8.07 C
189 09-03-2018 15:40:00 9.3 C 92 % 8.07 C
190 09-03-2018 15:45:00 9.3 C 92 % 8.07 C
191 09-03-2018 15:50:00 9.3 C 93 % 8.23 C
192 09-03-2018 15:55:00 9.2 C 92 % 7.97 C
193 09-03-2018 16:00:00 9.1 C 92 % 7.87 C
194 09-03-2018 16:05:00 9 C 92 % 7.77 C
195 09-03-2018 16:10:00 8.9 C 93 % 7.83 C
196 09-03-2018 16:15:00 8.8 C 93 % 7.73 C
197 09-03-2018 16:20:00 8.8 C 93 % 7.73 C
198 09-03-2018 16:25:00 8.7 C 93 % 7.63 C
199 09-03-2018 16:30:00 8.7 C 93 % 7.63 C
200 09-03-2018 16:35:00 8.6 C 93 % 7.53 C
Sensor: Nr:Datum:Temp:Feuchte:Taupunkt:
Aussen-T/F 201 09-03-2018 16:40:00 8.6 C 93 % 7.53 C
202 09-03-2018 16:45:00 8.4 C 93 % 7.34 C
203 09-03-2018 16:50:00 8.4 C 93 % 7.34 C
204 09-03-2018 16:55:00 8.3 C 94 % 7.39 C
205 09-03-2018 17:00:00 8.3 C 94 % 7.39 C
206 09-03-2018 17:05:00 8.3 C 94 % 7.39 C
207 09-03-2018 17:10:00 8.3 C 94 % 7.39 C
208 09-03-2018 17:15:00 8.2 C 94 % 7.29 C
209 09-03-2018 17:20:00 8.2 C 94 % 7.29 C
210 09-03-2018 17:25:00 8.2 C 94 % 7.29 C
211 09-03-2018 17:30:00 8.1 C 94 % 7.19 C
212 09-03-2018 17:35:00 8.1 C 94 % 7.19 C
213 09-03-2018 17:40:00 7.9 C 94 % 7 C
214 09-03-2018 17:45:00 7.9 C 94 % 7 C
215 09-03-2018 17:50:00 7.8 C 95 % 7.05 C
216 09-03-2018 17:55:00 7.8 C 95 % 7.05 C
217 09-03-2018 18:00:00 7.8 C 95 % 7.05 C
218 09-03-2018 18:05:00 7.7 C 95 % 6.95 C
219 09-03-2018 18:10:00 7.7 C 95 % 6.95 C
220 09-03-2018 18:15:00 7.7 C 95 % 6.95 C
221 09-03-2018 18:20:00 7.7 C 95 % 6.95 C
222 09-03-2018 18:25:00 7.6 C 95 % 6.85 C
223 09-03-2018 18:30:00 7.5 C 95 % 6.75 C
224 09-03-2018 18:35:00 7.4 C 95 % 6.65 C
225 09-03-2018 18:40:00 7.4 C 95 % 6.65 C
Sensor: Nr:Datum:Temp:Feuchte:Taupunkt:
Aussen-T/F 226 09-03-2018 18:45:00 7.3 C 95 % 6.55 C
227 09-03-2018 18:50:00 7.3 C 95 % 6.55 C
228 09-03-2018 18:55:00 7.3 C 95 % 6.55 C
229 09-03-2018 19:00:00 7.3 C 95 % 6.55 C
230 09-03-2018 19:05:00 7.2 C 95 % 6.45 C
231 09-03-2018 19:10:00 7.1 C 95 % 6.35 C
232 09-03-2018 19:15:00 7.1 C 95 % 6.35 C
233 09-03-2018 19:20:00 7.1 C 95 % 6.35 C
234 09-03-2018 19:25:00 7 C 95 % 6.26 C
235 09-03-2018 19:30:00 7 C 95 % 6.26 C
236 09-03-2018 19:35:00 7 C 95 % 6.26 C
237 09-03-2018 19:40:00 7 C 95 % 6.26 C
238 09-03-2018 19:45:00 7 C 96 % 6.41 C
239 09-03-2018 19:50:00 7.1 C 96 % 6.51 C
240 09-03-2018 19:55:00 7.2 C 96 % 6.61 C
241 09-03-2018 20:00:00 7.3 C 96 % 6.71 C
242 09-03-2018 20:05:00 7.3 C 96 % 6.71 C
243 09-03-2018 20:10:00 7.4 C 96 % 6.8 C
244 09-03-2018 20:15:00 7.4 C 96 % 6.8 C
245 09-03-2018 20:20:00 7.3 C 96 % 6.71 C
246 09-03-2018 20:25:00 7.3 C 96 % 6.71 C
247 09-03-2018 20:30:00 7.3 C 96 % 6.71 C
248 09-03-2018 20:35:00 7.2 C 96 % 6.61 C
249 09-03-2018 20:40:00 7.2 C 96 % 6.61 C
250 09-03-2018 20:45:00 7.2 C 96 % 6.61 C
Sensor: Nr:Datum:Temp:Feuchte:Taupunkt:
Aussen-T/F 251 09-03-2018 20:50:00 7.2 C 96 % 6.61 C
252 09-03-2018 20:55:00 7.2 C 96 % 6.61 C
253 09-03-2018 21:00:00 7.2 C 96 % 6.61 C
254 09-03-2018 21:05:00 7.2 C 96 % 6.61 C
255 09-03-2018 21:10:00 7.1 C 96 % 6.51 C
256 09-03-2018 21:15:00 7.1 C 96 % 6.51 C
257 09-03-2018 21:20:00 7.1 C 96 % 6.51 C
258 09-03-2018 21:25:00 7.2 C 96 % 6.61 C
259 09-03-2018 21:30:00 7.2 C 96 % 6.61 C
260 09-03-2018 21:35:00 7.2 C 96 % 6.61 C
261 09-03-2018 21:40:00 7.2 C 96 % 6.61 C
262 09-03-2018 21:45:00 7.2 C 96 % 6.61 C
263 09-03-2018 21:50:00 7.2 C 96 % 6.61 C
264 09-03-2018 21:55:00 7.1 C 96 % 6.51 C
265 09-03-2018 22:00:00 7.1 C 96 % 6.51 C
266 09-03-2018 22:05:00 7.1 C 96 % 6.51 C
267 09-03-2018 22:10:00 7.1 C 96 % 6.51 C
268 09-03-2018 22:15:00 7.1 C 96 % 6.51 C
269 09-03-2018 22:20:00 7.1 C 96 % 6.51 C
270 09-03-2018 22:25:00 7.1 C 96 % 6.51 C
271 09-03-2018 22:30:00 7.1 C 96 % 6.51 C
272 09-03-2018 22:35:00 7 C 96 % 6.41 C
273 09-03-2018 22:40:00 7.1 C 96 % 6.51 C
274 09-03-2018 22:45:00 7 C 96 % 6.41 C
275 09-03-2018 22:50:00 7.1 C 97 % 6.66 C
Sensor: Nr:Datum:Temp:Feuchte:Taupunkt:
Aussen-T/F 276 09-03-2018 22:55:00 7 C 97 % 6.56 C
277 09-03-2018 23:00:00 7 C 97 % 6.56 C
278 09-03-2018 23:05:00 7 C 97 % 6.56 C
279 09-03-2018 23:10:00 7 C 97 % 6.56 C
280 09-03-2018 23:15:00 7.1 C 97 % 6.66 C
281 09-03-2018 23:20:00 7.1 C 97 % 6.66 C
282 09-03-2018 23:25:00 7.1 C 97 % 6.66 C
283 09-03-2018 23:30:00 7.1 C 97 % 6.66 C
284 09-03-2018 23:35:00 7.1 C 97 % 6.66 C
285 09-03-2018 23:40:00 7.1 C 97 % 6.66 C
286 09-03-2018 23:45:00 7 C 97 % 6.56 C
287 09-03-2018 23:50:00 7 C 97 % 6.56 C
288 09-03-2018 23:55:00 6.9 C 97 % 6.46 C

Legende:
   Min
   Max


Maximal/Minimal-Werte vom 09.03.2018 - 09.03.2018

Sensor Min Max Avg
Temp
(Aussen-T/F)
2.2 °C
09-03-2018  02:35:00
9.3 °C
09-03-2018  15:35:00
5.57 °C
Feuchte
(Aussen-T/F)
86 %
09-03-2018  13:40:00
97 %
09-03-2018  22:50:00
93.95 %
Taupunkt
(Aussen-T/F)
1.19 C
09-03-2018  02:35:00
8.23 C
09-03-2018  15:50:00
4.65 C

Die Daten stammen von einer Davis Vantage Pro 2 Wetter-Station und werden unter Linux mit der Software wview2wettercgi und aufbereitet. Alle Angaben erfolgen ohne Gewähr für ihre Vollständigkeit oder Richtigkeit.
Kontakt: Rainer Krienke krienke@uni-koblenz.de . Meine Webseiten an der Uni Koblenz oder privat.
Version: $Revision: 0.78 $